Flight Track Log - Related Links

Times and Time Zones

All times are in EDT time to prevent confusion due to time zone crossing. See the UPS492 flight status page for this flight to view local times or setup timezone preferences in your user account.

Time Position Orientation Groundspeed Altitude Reporting Facility
EDT Latitude Longitude Course Direction KTS MPH feet Rate Location/Type
Sat 08:33:24 AM 43.5983 -96.7603 280° West 129 148 3,400  Level Minneapolis Center
Sat 08:34:25 AM 43.6072 -96.8306 280° West 177 204 5,200 3,098 Climbing Minneapolis Center
Sat 08:35:26 AM 43.6214 -96.9233 282° West 217 250 9,700 3,492 Climbing Minneapolis Center
Sat 08:36:27 AM 43.6606 -97.0061 303° West 244 281 12,300 2,705 Climbing Minneapolis Center
Sat 08:37:28 AM 43.7147 -97.1081 306° West 296 341 15,200 2,780 Climbing Minneapolis Center
Sat 08:38:30 AM 43.7753 -97.2128 309° West 341 392 18,000 2,537 Climbing Minneapolis Center
Sat 08:39:31 AM 43.8361 -97.3211 308° West 354 407 20,400 2,459 Climbing Minneapolis Center
Sat 08:40:32 AM 43.8978 -97.4336 307° West 360 414 23,000 2,410 Climbing Minneapolis Center
Sat 08:41:33 AM 43.9597 -97.5497 307° West 371 427 25,300 2,164 Climbing Minneapolis Center
Sat 08:42:34 AM 44.0250 -97.6653 308° West 375 432 27,400 2,361 Climbing Minneapolis Center
Sat 08:43:35 AM 44.1006 -97.8067 307° West 379 436 30,100 2,146 Climbing Minneapolis Center
Sat 08:44:37 AM 44.1636 -97.9214 307° West 377 434 31,800 1,610 Climbing Minneapolis Center
Sat 08:45:38 AM 44.2267 -98.0397 307° West 378 435 33,400 1,230 Climbing Minneapolis Center
Sat 08:46:39 AM 44.2900 -98.1589 307° West 380 437 34,300 984 Climbing Minneapolis Center
Sat 08:47:40 AM 44.3544 -98.2803 307° West 384 442 35,400 836 Climbing Minneapolis Center
Sat 08:48:41 AM 44.4142 -98.3906 307° West 389 448 36,000 295 Climbing Minneapolis Center
Sat 08:49:42 AM 44.4806 -98.5156 307° West 396 456 36,000  Level Minneapolis Center
Sat 08:50:43 AM 44.5592 -98.6647 307° West 396 456 36,000  Level Minneapolis Center
Sat 08:51:45 AM 44.6261 -98.7889 307° West 396 456 36,000  Level Minneapolis Center
Sat 08:52:46 AM 44.6928 -98.9156 307° West 398 458 36,000  Level Minneapolis Center
Sat 08:53:47 AM 44.7578 -99.0425 306° West 400 460 36,000  Level Minneapolis Center
Sat 08:54:48 AM 44.8225 -99.1686 306° West 400 460 36,000  Level Minneapolis Center
Sat 08:55:49 AM 44.8886 -99.2953 306° West 400 460 36,000  Level Minneapolis Center
Sat 08:56:50 AM 44.9542 -99.4231 306° West 401 461 36,000  Level Minneapolis Center
Sat 08:57:51 AM 45.0194 -99.5500 306° West 401 461 36,000  Level Minneapolis Center
Sat 08:58:52 AM 45.0850 -99.6800 306° West 405 466 36,000  Level Minneapolis Center
Sat 08:59:53 AM 45.1617 -99.8319 306° West 406 467 36,000  Level Minneapolis Center
Sat 09:00:55 AM 45.2258 -99.9567 306° West 405 466 36,000  Level Minneapolis Center
Sat 09:01:56 AM 45.2914 -100.0839 306° West 405 466 36,000  Level Minneapolis Center
Sat 09:02:57 AM 45.3553 -100.2114 306° West 404 465 36,000  Level Minneapolis Center
Sat 09:03:58 AM 45.4208 -100.3431 305° West 404 465 36,000  Level Minneapolis Center
Sat 09:04:59 AM 45.4867 -100.4758 305° West 408 470 36,000  Level Minneapolis Center
Sat 09:06:00 AM 45.5514 -100.6053 306° West 407 468 36,000  Level Minneapolis Center
Sat 09:07:01 AM 45.6272 -100.7614 305° West 404 465 36,000  Level Minneapolis Center
Sat 09:08:02 AM 45.6911 -100.8908 305° West 402 463 36,000  Level Minneapolis Center
Sat 09:09:03 AM 45.7547 -101.0231 305° West 403 464 36,000  Level Minneapolis Center
Sat 09:10:04 AM 45.8200 -101.1561 305° West 404 465 36,000  Level Minneapolis Center
Sat 09:11:06 AM 45.8847 -101.2903 305° West 407 468 36,000  Level Minneapolis Center
Sat 09:12:07 AM 45.9492 -101.4247 305° West 407 468 36,000  Level Minneapolis Center
Sat 09:13:08 AM 46.0144 -101.5606 305° West 408 470 36,000  Level Minneapolis Center
Sat 09:14:09 AM 46.0794 -101.6967 305° West 410 472 36,000  Level Minneapolis Center
Sat 09:15:10 AM 46.1428 -101.8311 304° West 410 472 36,000  Level Minneapolis Center
Sat 09:16:11 AM 46.2078 -101.9678 305° West 410 472 36,000  Level Minneapolis Center
Sat 09:17:12 AM 46.2761 -102.1142 304° West 410 472 36,000  Level Minneapolis Center
Sat 09:18:14 AM 46.3403 -102.2522 304° West 411 473 36,000  Level Minneapolis Center
Sat 09:19:15 AM 46.4047 -102.3894 304° West 411 473 36,000  Level Minneapolis Center
Sat 09:20:16 AM 46.4678 -102.5269 304° West 411 473 36,000  Level Minneapolis Center
Sat 09:21:17 AM 46.5311 -102.6672 303° West 412 474 36,000  Level Minneapolis Center
Sat 09:22:18 AM 46.6089 -102.8342 304° West 414 476 36,000  Level Minneapolis Center
Sat 09:23:19 AM 46.6714 -102.9756 303° West 417 480 36,000  Level Minneapolis Center
Sat 09:24:21 AM 46.7344 -103.1156 303° West 416 479 36,000  Level Minneapolis Center
Sat 09:25:22 AM 46.7981 -103.2572 303° West 416 479 36,000 -49 Level Minneapolis Center
Sat 09:26:23 AM 46.8622 -103.4000 303° West 417 480 35,900 -49 Descending Minneapolis Center
Sat 09:27:24 AM 46.9256 -103.5425 303° West 417 480 35,900  Level Minneapolis Center
Sat 09:28:25 AM 46.9889 -103.6864 303° West 417 480 35,900 49 Level Minneapolis Center
Sat 09:29:26 AM 47.0536 -103.8306 303° West 419 482 36,000 49 Climbing Minneapolis Center
Sat 09:30:27 AM 47.1164 -103.9747 303° West 419 482 36,000  Level Minneapolis Center
Sat 09:31:31 AM 47.1775 -104.1231 301° West 420 483 36,000  Level Salt Lake Center
Sat 09:32:31 AM 47.2392 -104.2672 302° West 420 483 36,000 -50 Level Salt Lake Center
Sat 09:33:32 AM 47.3158 -104.4442 303° West 420 483 35,900 -49 Descending Salt Lake Center
Sat 09:34:33 AM 47.3778 -104.5881 302° West 420 483 35,900  Level Salt Lake Center
Sat 09:35:34 AM 47.4378 -104.7347 301° West 420 483 35,900 49 Level Salt Lake Center
Sat 09:36:35 AM 47.5014 -104.8839 302° West 420 483 36,000 49 Climbing Salt Lake Center
Sat 09:37:36 AM 47.5667 -105.0336 303° West 425 489 36,000  Level Salt Lake Center
Sat 09:38:37 AM 47.6286 -105.1833 302° West 427 491 36,000 -49 Level Salt Lake Center
Sat 09:39:38 AM 47.6889 -105.3308 301° West 426 490 35,900 -49 Descending Salt Lake Center
Sat 09:40:39 AM 47.7500 -105.4797 301° West 426 490 35,900  Level Salt Lake Center
Sat 09:41:40 AM 47.8114 -105.6292 301° West 426 490 35,900 49 Level Salt Lake Center
Sat 09:42:41 AM 47.8725 -105.7775 302° West 425 489 36,000 49 Climbing Salt Lake Center
Sat 09:43:42 AM 47.9333 -105.9272 301° West 424 488 36,000  Level Salt Lake Center
Sat 09:44:43 AM 47.9939 -106.0764 301° West 424 488 36,000 -49 Level Salt Lake Center
Sat 09:45:44 AM 48.0533 -106.2267 301° West 424 488 35,900 -49 Descending Salt Lake Center
Sat 09:46:45 AM 48.1136 -106.3769 301° West 424 488 35,900 49 Level Salt Lake Center
Sat 09:47:46 AM 48.1886 -106.5581 302° West 424 488 36,000 49 Climbing Salt Lake Center
Sat 09:48:47 AM 48.2467 -106.7092 300° West 424 488 36,000  Level Salt Lake Center
Sat 09:49:48 AM 48.3086 -106.8589 302° West 424 488 36,000 -49 Level Salt Lake Center
Sat 09:50:49 AM 48.3711 -107.0069 302° West 423 487 35,900  Descending Salt Lake Center
Sat 09:51:50 AM 48.4322 -107.1589 301° West 424 488 36,000 49 Climbing Salt Lake Center
Sat 09:52:51 AM 48.4919 -107.3111 301° West 423 487 36,000  Level Salt Lake Center
Sat 09:53:52 AM 48.5517 -107.4636 301° West 424 488 36,000  Level Salt Lake Center
Sat 09:54:53 AM 48.6131 -107.6178 301° West 426 490 36,000  Level Salt Lake Center
Sat 09:55:55 AM 48.6808 -107.7897 301° West 427 491 36,000  Level Salt Lake Center
Sat 09:56:56 AM 48.7422 -107.9436 301° West 427 491 36,000 -49 Level Salt Lake Center
Sat 09:57:57 AM 48.8019 -108.0978 301° West 427 491 35,900 -49 Descending Salt Lake Center
Sat 09:58:58 AM 48.8614 -108.2519 300° West 427 491 35,900 55 Level Salt Lake Center
Sat 09:59:47 AM 48.9000 -108.4167 290° West 430 495 36,000 55 Climbing Winnipeg Center
Sat 10:00:47 AM 48.9500 -108.5500 300° West 430 495 36,000  Level Winnipeg Center
Sat 10:01:47 AM 49.0167 -108.7333 299° West 430 495 36,000  Level Winnipeg Center
Sat 10:02:47 AM 49.0667 -108.9000 295° West 430 495 36,000  Level Winnipeg Center
Sat 10:03:47 AM 49.1333 -109.0333 307° West 430 495 36,000  Level Winnipeg Center
Sat 10:04:47 AM 49.1833 -109.2000 295° West 430 495 36,000  Level Winnipeg Center
Sat 10:05:47 AM 49.2500 -109.3500 304° West 430 495 36,000  Level Winnipeg Center
Sat 10:06:47 AM 49.3000 -109.5167 295° West 430 495 36,000  Level Winnipeg Center
Sat 10:07:47 AM 49.3667 -109.6667 304° West 430 495 36,000  Level Winnipeg Center
Sat 10:08:47 AM 49.4333 -109.8500 299° West 430 495 36,000  Level Winnipeg Center
Sat 10:09:47 AM 49.4833 -110.0167 295° West 440 506 36,000  Level Winnipeg Center
Sat 10:10:47 AM 49.5500 -110.1833 302° West 430 495 36,000  Level Winnipeg Center
Sat 10:11:47 AM 49.6000 -110.3333 297° West 430 495 36,000  Level Winnipeg Center
Sat 10:12:47 AM 49.6667 -110.4833 305° West 430 495 36,000  Level Winnipeg Center
Sat 10:13:47 AM 49.7000 -110.6500 287° West 440 506 36,000  Level Winnipeg Center
Sat 10:14:47 AM 49.7667 -110.8333 299° West 440 506 36,000  Level Winnipeg Center
Sat 10:15:47 AM 49.8333 -111.0000 302° West 430 495 36,000  Level Winnipeg Center
Sat 10:16:47 AM 49.8833 -111.1500 297° West 430 495 36,000  Level Winnipeg Center
Sat 10:17:47 AM 49.9500 -111.3333 300° West 430 495 36,000  Level Winnipeg Center
Sat 10:18:47 AM 50.0000 -111.4667 300° West 430 495 36,000  Level Winnipeg Center
Sat 10:19:47 AM 50.0500 -111.6500 293° West 430 495 36,000  Level Winnipeg Center
Sat 10:20:47 AM 50.1167 -111.8000 305° West 430 495 36,000  Level Winnipeg Center
Sat 10:21:47 AM 50.1667 -111.9833 293° West 430 495 36,000  Level Winnipeg Center
Sat 10:22:47 AM 50.2333 -112.1333 305° West 430 495 36,000  Level Winnipeg Center
Sat 10:23:47 AM 50.2833 -112.3167 293° West 430 495 36,000  Level Winnipeg Center
Sat 10:24:47 AM 50.3500 -112.4667 305° West 430 495 36,000 -100 Level Winnipeg Center
Sat 10:25:47 AM 50.4000 -112.6333 295° West 430 495 35,800 -1,400 Descending Winnipeg Center
Sat 10:26:47 AM 50.4667 -112.8000 302° West 430 495 33,200 -3,000 Descending Winnipeg Center
Sat 10:27:47 AM 50.5167 -112.9500 298° West 410 472 29,800 -3,020 Descending Winnipeg Center
Sat 10:29:16 AM 50.5833 -113.1333 300° West 380 437 25,700 -2,658 Descending Edmonton Center
Sat 10:30:16 AM 50.6167 -113.2667 292° West 350 403 23,200 -2,400 Descending Edmonton Center
Sat 10:31:16 AM 50.6833 -113.4167 305° West 340 391 20,900 -2,050 Descending Edmonton Center
Sat 10:32:16 AM 50.7333 -113.5000 313° West 340 391 19,100 -1,850 Descending Edmonton Center
Sat 10:33:16 AM 50.8167 -113.6000 323° Northwest 350 403 17,200 -1,800 Descending Edmonton Center
Sat 10:34:16 AM 50.8667 -113.7167 304° West 340 391 15,500 -1,700 Descending Edmonton Center
Sat 10:35:16 AM 50.9500 -113.8167 323° Northwest 310 357 13,800 -1,550 Descending Edmonton Center
Sat 10:36:16 AM 51.0167 -113.8833 328° Northwest 270 311 12,400 -1,400 Descending Edmonton Center
Sat 10:37:16 AM 51.0833 -113.9000 351° North 270 311 11,000 -1,350 Descending Edmonton Center
Sat 10:38:16 AM 51.1500 -113.9167 351° North 250 288 9,700 -1,150 Descending Edmonton Center
Sat 10:39:16 AM 51.2167 -113.9000 North 240 276 8,700 -950 Descending Edmonton Center
Sat 10:40:16 AM 51.2833 -113.9333 343° North 210 242 7,800 -1,250 Descending Edmonton Center
Sat 10:41:16 AM 51.2667 -114.0167 252° West 210 242 6,200 -1,100 Descending Edmonton Center
Sat 10:42:16 AM 51.2333 -114.0333 197° South 160 184 5,600 -500 Descending Edmonton Center
Sat 10:43:16 AM 51.2000 -114.0667 212° Southwest 150 173 5,200 -400 Descending Edmonton Center
Sat 10:44:16 AM 51.1500 -114.0500 168° South 140 161 4,800 -550 Descending Edmonton Center
Sat 10:45:16 AM 51.1167 -114.0333 163° South 120 138 4,100 -650 Descending Edmonton Center
Sat 10:46:16 AM 51.0833 -114.0333 180° South 110 127 3,500 -250 Descending Edmonton Center
Sat 10:47:16 AM 51.0833 -114.0667 270° West 10 12 3,600 100 Climbing Edmonton Center

Login

Don't have an account? Register now (free) for customized features, flight alerts, and more!